map of EAS home
EAS - Airport
Location
City:  San Sebastián, Basque Country, Spain
Near (Alt.):Hondarribia
Name:San Sebastián Airport
Old (Alt.):Fuenterrabia Airport
ICAO:LESO
IATA:EAS

Details
Type:Airport (Aerodrome, Airfield)
Use:Public/Civil
Latitude:43°21'23"N (43.356519)
Longitude:1°47'26"W (-1.790610)
Datum:WGS 1984
Elevation:15 ft (5 m)
Variation:0.18°W (WMM2015 magnetic declination)
0.12° annual change
Runways:1
Longest:5755 × 148 ft (1754 × 45 m), paved

Time
Time Zone:UTC+1 (DST+2)
Local Time:

Weather
METAR:LESO 190230Z AUTO VRB02KT CAVOK 08/07 Q1007
TAF:LESO 182300Z 1900/1924 11003KT CAVOK TX13/1914Z TN06/1907Z

Related Locations
Nearby:
Farthest:NZFT: 12248 mi / 19711 km
Flat Point, WGN, NZ

Find:

   beyond  
but within

Other Information
Maps:
NOTAMs:
Links:
Sources:

  
  • flag of Spain
  • flag of Basque Country
  

Sectional Chart

Flight Planning
at skyvector.com

Satellite Image

Google Maps Satellite view

 

Copyright © 2004-2018 Karl L. Swartz. All rights reserved.
The Great Circle Mapper name and logo are trademarks of the Great Circle Mapper.
All other trademarks mentioned herein belong to their respective owners.
Please see credits for attibutions and further copyright information.

  Follow gcmap on Facebook Follow gcmap on Twitter Follow gcmap on Google+ GCmap on LinkedIn

hCard Microformat

Geo Microformat